LEBA/ODB METAR and TAF weather

Enter ICAO airport designator
Station Type Date Time Source
LEBA METAR 2019/06/27 08:00 UTC NOAA

LEBA 270800Z 25004KT 180V350 CAVOK 23/16 Q1017


Station Type Date Time Source
LEBA Decoded METAR 2019/06/27 08:00 UTC NOAA

Cordoba / Aeropuerto, Spain (LEBA) 37-51N 004-51W 92M
Jun 27, 2019 - 04:00 AM EDT / 2019.06.27 0800 UTC
Wind: from the WSW (250 degrees) at 5 MPH (4 KT) (direction variable):0
Visibility: greater than 7 mile(s):0
Temperature: 73 F (23 C)
Dew Point: 60 F (16 C)
Relative Humidity: 64%
Pressure (altimeter): 30.03 in. Hg (1017 hPa)
ob: LEBA 270800Z 25004KT 180V350 CAVOK 23/16 Q1017
cycle: 8

Station Type Date Time Source
LEBA TAF 2015/01/24 09:27 UTC NOAA

TAF TAF LEBA 240800Z 2409/2421 VRB02KT CAVOK

Example: see airport list